createdAt,value
2017-06-28T00:00:12.459Z,99.90
2017-06-28T00:02:40.007Z,99.90
2017-06-28T00:05:07.649Z,99.90
2017-06-28T00:07:35.369Z,99.90
2017-06-28T00:10:02.885Z,99.90
2017-06-28T00:12:30.869Z,99.90
2017-06-28T00:14:58.543Z,99.90
2017-06-28T00:17:26.481Z,99.90
2017-06-28T00:19:54.161Z,99.90
2017-06-28T00:22:21.707Z,99.90
2017-06-28T00:24:49.246Z,99.90
2017-06-28T00:27:17.086Z,99.90
2017-06-28T00:29:44.646Z,99.90
2017-06-28T00:32:12.293Z,99.90
2017-06-28T00:34:39.808Z,99.90
2017-06-28T00:37:07.644Z,99.90
2017-06-28T00:39:35.226Z,99.90
2017-06-28T00:42:02.788Z,99.90
2017-06-28T00:44:30.357Z,99.90
2017-06-28T00:46:58.667Z,99.90
2017-06-28T00:49:26.457Z,99.90
2017-06-28T00:51:54.010Z,99.90
2017-06-28T00:54:22.026Z,99.90
2017-06-28T00:56:49.541Z,99.90
2017-06-28T00:59:17.405Z,99.90
2017-06-28T01:01:45.324Z,99.90
2017-06-28T01:04:12.901Z,99.90
2017-06-28T01:06:40.561Z,99.90
2017-06-28T01:09:08.210Z,99.90
2017-06-28T01:11:35.994Z,99.90
2017-06-28T01:14:03.537Z,99.90
2017-06-28T01:16:31.069Z,99.90
2017-06-28T01:18:59.355Z,99.90
2017-06-28T01:21:27.168Z,99.90
2017-06-28T01:23:54.744Z,99.90
2017-06-28T01:26:22.264Z,99.90
2017-06-28T01:28:49.865Z,99.90
2017-06-28T01:31:17.373Z,99.90
2017-06-28T01:33:46.485Z,99.90
2017-06-28T01:36:13.996Z,99.90
2017-06-28T01:38:41.562Z,99.90
2017-06-28T01:41:09.165Z,99.90
2017-06-28T01:43:37.071Z,99.90
2017-06-28T01:46:05.377Z,99.90
2017-06-28T01:48:33.281Z,99.90
2017-06-28T01:51:00.853Z,99.90
2017-06-28T01:53:28.735Z,99.90
2017-06-28T01:55:56.297Z,99.90
2017-06-28T01:58:24.669Z,99.90
2017-06-28T02:00:52.985Z,99.90
2017-06-28T02:03:20.534Z,99.90
2017-06-28T02:05:48.129Z,99.90
2017-06-28T02:08:15.717Z,99.90
2017-06-28T02:10:44.010Z,99.90
2017-06-28T02:13:12.426Z,99.90
2017-06-28T02:15:40.004Z,99.90
2017-06-28T02:18:07.525Z,99.90
2017-06-28T02:20:35.114Z,99.90
2017-06-28T02:23:02.713Z,99.90
2017-06-28T02:25:30.517Z,99.90
2017-06-28T02:27:58.066Z,99.90
2017-06-28T02:30:25.605Z,99.90
2017-06-28T02:32:53.146Z,99.90
2017-06-28T02:35:20.657Z,99.90
2017-06-28T02:37:48.283Z,99.90
2017-06-28T02:40:15.841Z,99.90
2017-06-28T02:42:43.422Z,99.90
2017-06-28T02:45:11.286Z,99.90
2017-06-28T02:47:38.826Z,99.90
2017-06-28T02:50:06.378Z,99.90
2017-06-28T02:52:34.263Z,99.90
2017-06-28T02:55:01.810Z,99.90
2017-06-28T02:57:29.577Z,99.90
2017-06-28T02:59:57.124Z,99.90
2017-06-28T03:02:24.706Z,99.90
2017-06-28T03:04:52.311Z,99.90
2017-06-28T03:07:27.902Z,99.90
2017-06-28T03:09:55.464Z,99.90
2017-06-28T03:12:23.379Z,99.90
2017-06-28T03:14:50.944Z,99.90
2017-06-28T03:17:18.493Z,99.90
2017-06-28T03:19:46.784Z,99.90
2017-06-28T03:22:14.414Z,99.90
2017-06-28T03:24:42.964Z,99.90
2017-06-28T03:27:10.880Z,99.90
2017-06-28T03:29:38.409Z,99.90
2017-06-28T03:32:05.921Z,99.90
2017-06-28T03:34:33.581Z,99.90
2017-06-28T03:37:01.146Z,99.90
2017-06-28T03:39:28.895Z,99.90
2017-06-28T03:41:56.433Z,99.90
2017-06-28T03:44:24.021Z,99.90
2017-06-28T03:46:51.587Z,99.90
2017-06-28T03:49:19.903Z,99.90
2017-06-28T04:24:03.629Z,99.90
2017-06-28T04:29:00.531Z,99.90
2017-06-28T04:31:28.093Z,99.90
2017-06-28T04:33:55.617Z,99.90
2017-06-28T04:36:23.506Z,99.90
2017-06-28T04:38:51.074Z,99.90
2017-06-28T04:41:18.664Z,99.90
2017-06-28T04:43:46.558Z,99.90
2017-06-28T04:46:14.420Z,99.90
2017-06-28T04:48:42.740Z,99.90
2017-06-28T04:51:10.277Z,99.90
2017-06-28T04:53:37.832Z,99.90
2017-06-28T04:56:05.401Z,99.90
2017-06-28T04:58:33.072Z,99.90
2017-06-28T05:01:00.938Z,99.90
2017-06-28T05:03:28.801Z,99.90
2017-06-28T05:05:56.330Z,99.90
2017-06-28T05:08:23.854Z,99.90
2017-06-28T05:10:53.422Z,99.90
2017-06-28T05:13:20.929Z,99.90
2017-06-28T05:15:49.297Z,99.90
2017-06-28T05:18:17.119Z,99.90
2017-06-28T05:20:44.717Z,99.90
2017-06-28T05:23:13.062Z,99.90
2017-06-28T05:25:40.639Z,99.90
2017-06-28T05:28:08.470Z,99.90
2017-06-28T05:30:36.034Z,99.70
2017-06-28T05:33:03.578Z,76.60
2017-06-28T05:35:31.140Z,57.70
2017-06-28T05:37:59.009Z,49.70
2017-06-28T05:40:26.536Z,44.30
2017-06-28T05:42:54.079Z,39.20
2017-06-28T05:45:21.885Z,31.60
2017-06-28T05:47:49.481Z,31.80
2017-06-28T05:50:17.027Z,32.30
2017-06-28T05:52:45.631Z,24.70
2017-06-28T05:55:13.972Z,24.50
2017-06-28T05:57:41.512Z,24.40
2017-06-28T06:00:09.114Z,24.40
2017-06-28T06:02:37.401Z,28.50
2017-06-28T06:05:04.964Z,28.40
2017-06-28T06:07:32.485Z,30.00
2017-06-28T06:10:00.132Z,34.30
2017-06-28T06:12:27.668Z,46.00
2017-06-28T06:14:55.189Z,40.70
2017-06-28T06:17:23.552Z,35.80
2017-06-28T06:19:51.120Z,35.80
2017-06-28T06:22:18.757Z,29.10
2017-06-28T06:24:46.341Z,27.10
2017-06-28T06:27:13.873Z,27.40
2017-06-28T06:29:41.375Z,29.30
2017-06-28T06:32:08.890Z,26.70
2017-06-28T06:34:36.413Z,30.90
2017-06-28T06:37:03.938Z,38.20
2017-06-28T06:39:31.469Z,44.40
2017-06-28T06:41:59.752Z,33.10
2017-06-28T06:44:27.381Z,32.90
2017-06-28T06:46:55.066Z,35.50
2017-06-28T06:49:23.351Z,33.90
2017-06-28T06:51:50.907Z,33.90
2017-06-28T06:54:19.200Z,37.00
2017-06-28T06:56:46.720Z,36.90
2017-06-28T06:59:14.549Z,42.70
2017-06-28T07:01:42.069Z,46.90
2017-06-28T07:04:09.660Z,50.50
2017-06-28T07:06:37.209Z,44.90
2017-06-28T07:09:04.911Z,46.40
2017-06-28T07:11:32.416Z,53.60
2017-06-28T07:13:59.960Z,73.00
2017-06-28T07:16:27.491Z,80.60
2017-06-28T07:18:55.795Z,67.20
2017-06-28T07:21:23.342Z,65.80
2017-06-28T07:23:50.847Z,69.80
2017-06-28T07:26:18.364Z,76.20
2017-06-28T07:28:45.930Z,78.80
2017-06-28T07:31:13.656Z,78.70
2017-06-28T07:33:41.932Z,70.10
2017-06-28T07:36:10.278Z,63.20
2017-06-28T07:38:37.865Z,63.30
2017-06-28T07:41:06.161Z,50.70
2017-06-28T07:43:33.697Z,50.50
2017-06-28T07:46:01.278Z,51.60
2017-06-28T07:48:28.817Z,43.30
2017-06-28T07:50:57.139Z,40.50
2017-06-28T07:55:53.575Z,99.90
2017-06-28T07:58:21.112Z,39.10
2017-06-28T08:00:48.825Z,27.60
2017-06-28T08:03:16.436Z,24.70
2017-06-28T08:05:44.445Z,23.90
2017-06-28T08:08:12.009Z,23.20
2017-06-28T08:10:39.702Z,19.90
2017-06-28T08:13:08.303Z,14.00
2017-06-28T08:15:36.183Z,13.90
2017-06-28T08:18:03.727Z,16.80
2017-06-28T08:20:31.263Z,27.40
2017-06-28T08:22:58.858Z,26.20
2017-06-28T08:25:26.562Z,19.80
2017-06-28T08:27:54.481Z,18.20
2017-06-28T08:30:22.217Z,18.70
2017-06-28T08:32:49.922Z,17.70
2017-06-28T08:35:17.665Z,16.10
2017-06-28T08:37:45.286Z,23.90
2017-06-28T08:40:13.777Z,47.90
2017-06-28T08:42:42.065Z,52.10
2017-06-28T08:45:09.669Z,51.70
2017-06-28T08:47:37.222Z,56.00
2017-06-28T08:50:04.729Z,56.70
2017-06-28T08:52:32.528Z,53.50
2017-06-28T08:55:00.190Z,47.70
2017-06-28T08:57:27.741Z,49.00
2017-06-28T08:59:55.628Z,53.20
2017-06-28T09:02:23.288Z,61.30
2017-06-28T09:04:51.081Z,67.50
2017-06-28T09:07:19.734Z,61.80
2017-06-28T09:09:47.286Z,61.60
2017-06-28T09:12:14.924Z,57.70
2017-06-28T09:14:42.507Z,53.90
2017-06-28T09:17:10.096Z,49.00
2017-06-28T09:19:38.366Z,56.10
2017-06-28T09:22:05.897Z,56.10
2017-06-28T09:24:34.089Z,58.40
2017-06-28T09:27:01.628Z,60.30
2017-06-28T09:29:29.229Z,64.50
2017-06-28T09:31:57.980Z,66.20
2017-06-28T09:34:25.572Z,66.20
2017-06-28T09:36:53.128Z,69.00
2017-06-28T09:39:20.668Z,68.40
2017-06-28T09:41:48.941Z,69.10
2017-06-28T09:44:16.508Z,69.10
2017-06-28T09:46:44.157Z,66.70
2017-06-28T09:49:12.417Z,65.90
2017-06-28T09:51:40.280Z,64.50
2017-06-28T09:54:07.818Z,60.30
2017-06-28T09:56:35.385Z,64.80
2017-06-28T09:59:02.998Z,68.60
2017-06-28T10:01:30.642Z,68.90
2017-06-28T10:03:59.005Z,71.80
2017-06-28T10:06:27.445Z,64.50
2017-06-28T10:08:54.961Z,64.30
2017-06-28T10:11:22.615Z,54.90
2017-06-28T10:13:50.113Z,52.40
2017-06-28T10:16:17.677Z,53.20
2017-06-28T10:18:45.307Z,54.00
2017-06-28T10:21:14.134Z,52.50
2017-06-28T10:23:41.685Z,54.10
2017-06-28T10:26:09.202Z,50.40
2017-06-28T10:28:36.780Z,54.30
2017-06-28T10:31:04.328Z,50.70
2017-06-28T10:33:31.976Z,51.60
2017-06-28T10:35:59.531Z,49.60
2017-06-28T10:38:27.162Z,49.20
2017-06-28T10:40:54.890Z,44.80
2017-06-28T10:43:22.730Z,43.10
2017-06-28T10:45:50.265Z,44.70
2017-06-28T10:48:18.189Z,46.30
2017-06-28T10:50:45.722Z,46.70
2017-06-28T10:53:13.625Z,51.80
2017-06-28T10:55:41.457Z,51.10
2017-06-28T10:58:09.129Z,52.10
2017-06-28T11:00:36.881Z,52.40
2017-06-28T11:03:04.645Z,48.10
2017-06-28T11:05:32.225Z,44.30
2017-06-28T11:07:59.750Z,42.90
2017-06-28T11:10:27.516Z,44.20
2017-06-28T11:12:55.236Z,42.80
2017-06-28T11:15:23.468Z,41.60
2017-06-28T11:17:51.317Z,40.60
2017-06-28T11:20:19.912Z,42.30
2017-06-28T11:22:47.412Z,40.90
2017-06-28T11:25:15.805Z,45.00
2017-06-28T11:27:43.358Z,44.80
2017-06-28T11:30:11.029Z,48.40
2017-06-28T11:32:38.537Z,46.40
2017-06-28T11:35:06.278Z,44.40
2017-06-28T11:37:34.058Z,43.20
2017-06-28T11:40:01.605Z,43.20
2017-06-28T11:42:29.262Z,42.10
2017-06-28T11:44:56.946Z,40.70
2017-06-28T11:47:25.457Z,41.00
2017-06-28T11:49:53.357Z,40.90
2017-06-28T11:52:21.177Z,41.20
2017-06-28T11:54:48.881Z,43.40
2017-06-28T11:57:16.763Z,44.90
2017-06-28T12:02:14.342Z,94.90
2017-06-28T12:04:42.181Z,99.00
2017-06-28T12:07:09.706Z,50.70
2017-06-28T12:09:37.236Z,49.00
2017-06-28T12:12:05.778Z,38.50
2017-06-28T12:14:34.461Z,38.20
2017-06-28T12:17:02.101Z,38.40
2017-06-28T12:19:30.195Z,43.30
2017-06-28T12:21:58.193Z,49.30
2017-06-28T12:24:25.946Z,53.40
2017-06-28T12:26:53.655Z,49.80
2017-06-28T12:29:21.261Z,44.10
2017-06-28T12:31:49.026Z,46.60
2017-06-28T12:34:16.724Z,47.40
2017-06-28T12:36:44.385Z,54.50
2017-06-28T12:46:39.190Z,99.90
2017-06-28T12:49:07.049Z,99.90
2017-06-28T12:51:34.641Z,99.90
2017-06-28T12:54:02.217Z,99.90
2017-06-28T12:56:30.513Z,99.90
2017-06-28T12:58:58.026Z,99.90
2017-06-28T13:01:26.708Z,99.90
2017-06-28T13:03:54.326Z,99.90
2017-06-28T13:06:21.881Z,99.90
2017-06-28T13:08:49.734Z,99.90
2017-06-28T13:11:17.256Z,99.90
2017-06-28T13:13:44.866Z,99.90
2017-06-28T13:16:12.439Z,99.90
2017-06-28T13:18:40.043Z,99.90
2017-06-28T13:21:07.554Z,99.90
2017-06-28T13:23:35.421Z,99.90
2017-06-28T13:26:03.068Z,99.90
2017-06-28T13:28:30.624Z,99.90
2017-06-28T13:30:58.194Z,99.90
2017-06-28T13:33:25.697Z,99.90
2017-06-28T13:35:53.311Z,99.90
2017-06-28T13:38:20.855Z,99.90
2017-06-28T13:40:48.420Z,99.90
2017-06-28T13:43:16.029Z,99.90
2017-06-28T13:45:43.541Z,99.90
2017-06-28T13:48:11.326Z,99.90
2017-06-28T13:50:39.609Z,99.90
2017-06-28T13:53:07.191Z,99.90
2017-06-28T13:55:34.743Z,99.90
2017-06-28T13:58:02.277Z,99.90
2017-06-28T14:00:29.821Z,99.90
2017-06-28T14:02:58.091Z,99.90
2017-06-28T14:05:27.544Z,99.90
2017-06-28T14:07:55.569Z,99.90
2017-06-28T14:10:24.201Z,99.90
2017-06-28T14:12:51.722Z,99.90
2017-06-28T14:15:19.287Z,99.90
2017-06-28T14:17:46.785Z,99.90
2017-06-28T14:20:14.310Z,99.90
2017-06-28T14:22:41.809Z,99.90
2017-06-28T14:25:09.315Z,99.90
2017-06-28T14:27:36.887Z,99.90
2017-06-28T14:30:05.302Z,99.90
2017-06-28T14:32:33.176Z,99.90
2017-06-28T14:35:00.717Z,99.90
2017-06-28T14:37:28.584Z,99.90
2017-06-28T14:39:56.097Z,99.90
2017-06-28T14:42:23.701Z,99.90
2017-06-28T14:44:51.259Z,99.90
2017-06-28T14:47:18.780Z,99.90
2017-06-28T14:49:46.549Z,99.90
2017-06-28T14:52:14.314Z,99.90
2017-06-28T14:54:42.178Z,99.90
2017-06-28T14:57:10.041Z,99.90
2017-06-28T14:59:37.632Z,99.90
2017-06-28T15:02:05.188Z,99.90
2017-06-28T15:04:32.724Z,99.90
2017-06-28T15:07:00.481Z,99.90
2017-06-28T15:09:27.991Z,99.90
2017-06-28T15:11:55.553Z,99.90
2017-06-28T15:14:23.061Z,99.90
2017-06-28T15:16:50.591Z,99.90
2017-06-28T15:19:18.126Z,99.90
2017-06-28T15:21:45.924Z,99.90
2017-06-28T15:24:13.446Z,99.90
2017-06-28T15:26:41.001Z,99.90
2017-06-28T15:29:08.519Z,99.90
2017-06-28T15:31:36.025Z,99.90
2017-06-28T15:34:03.587Z,99.90
2017-06-28T16:18:50.669Z,99.90
2017-06-28T17:23:27.533Z,99.90
2017-06-28T18:30:34.686Z,99.90
2017-06-28T18:33:03.405Z,99.90
2017-06-28T18:35:31.754Z,99.90
2017-06-28T18:38:02.065Z,99.90
2017-06-28T18:40:36.527Z,99.90
2017-06-28T18:43:05.675Z,99.90
2017-06-28T18:48:03.390Z,99.90
2017-06-28T18:50:31.672Z,99.90
2017-06-28T18:52:59.487Z,99.90
2017-06-28T18:55:28.493Z,99.90
2017-06-28T18:57:56.322Z,99.90
2017-06-28T19:00:23.894Z,99.90
2017-06-28T19:02:51.537Z,99.90
2017-06-28T19:05:19.106Z,99.90
2017-06-28T19:07:46.684Z,99.90
2017-06-28T19:10:14.436Z,99.90
2017-06-28T19:12:42.017Z,99.90
2017-06-28T19:15:10.150Z,99.90
2017-06-28T19:17:38.321Z,99.90
2017-06-28T19:20:06.205Z,99.90
2017-06-28T19:22:34.271Z,99.90
2017-06-28T19:25:01.975Z,99.90
2017-06-28T19:27:29.640Z,99.90
2017-06-28T19:29:59.203Z,99.90
2017-06-28T19:32:27.070Z,99.90
2017-06-28T19:34:54.613Z,99.90
2017-06-28T19:37:22.178Z,99.90
2017-06-28T19:39:49.838Z,99.90
2017-06-28T19:42:17.485Z,99.90
2017-06-28T19:44:45.056Z,99.90
2017-06-28T19:47:12.909Z,99.90
2017-06-28T19:49:40.477Z,99.90
2017-06-28T19:52:08.065Z,99.90
2017-06-28T19:54:36.981Z,99.90
2017-06-28T19:57:06.092Z,99.90
2017-06-28T19:59:33.648Z,99.90
2017-06-28T20:02:01.194Z,99.90
2017-06-28T20:04:29.085Z,99.90
2017-06-28T20:06:56.603Z,99.90
2017-06-28T20:09:24.213Z,99.90
2017-06-28T20:11:52.129Z,99.90
2017-06-28T20:14:19.975Z,99.90
2017-06-28T20:16:48.246Z,99.90
2017-06-28T20:19:15.752Z,99.90
2017-06-28T20:21:43.337Z,99.90
2017-06-28T20:24:10.911Z,99.90
2017-06-28T20:26:38.513Z,99.90
2017-06-28T20:29:06.366Z,99.90
2017-06-28T20:31:34.468Z,99.90
2017-06-28T20:34:02.156Z,99.90
2017-06-28T20:36:30.534Z,99.90
2017-06-28T20:38:58.239Z,99.90
2017-06-28T20:41:25.828Z,99.90
2017-06-28T20:43:53.524Z,99.90
2017-06-28T20:46:21.030Z,99.90
2017-06-28T20:48:48.557Z,99.90
2017-06-28T20:51:17.284Z,99.90
2017-06-28T20:53:44.860Z,99.90
2017-06-28T20:56:12.405Z,99.90
2017-06-28T20:58:40.132Z,99.90
2017-06-28T21:01:07.665Z,99.90
2017-06-28T21:03:35.481Z,99.90
2017-06-28T21:06:03.037Z,99.90
2017-06-28T21:08:30.547Z,99.90
2017-06-28T21:10:58.906Z,99.90
2017-06-28T21:13:26.409Z,99.90
2017-06-28T21:15:54.265Z,99.90
2017-06-28T21:18:22.059Z,99.90
2017-06-28T21:20:49.570Z,99.90
2017-06-28T21:23:17.349Z,99.90
2017-06-28T21:25:44.959Z,99.90
2017-06-28T21:28:12.561Z,99.90
2017-06-28T21:30:40.157Z,99.90
2017-06-28T21:33:07.809Z,99.90
2017-06-28T21:35:35.321Z,99.90
2017-06-28T21:38:03.620Z,99.90
2017-06-28T21:40:31.156Z,99.90
2017-06-28T21:42:58.702Z,99.90
2017-06-28T21:45:27.033Z,99.90
2017-06-28T21:47:54.541Z,99.90
2017-06-28T21:50:22.842Z,99.90
2017-06-28T21:52:50.366Z,99.90
2017-06-28T21:55:18.640Z,99.90
2017-06-28T21:57:47.025Z,99.90
2017-06-28T22:00:14.682Z,99.90
2017-06-28T22:02:42.982Z,99.90
2017-06-28T22:05:10.824Z,99.90
2017-06-28T22:07:38.369Z,99.90
2017-06-28T22:10:06.676Z,99.90
2017-06-28T22:12:34.833Z,99.90
2017-06-28T22:15:02.518Z,99.90
2017-06-28T22:17:38.333Z,99.90
2017-06-28T22:20:06.632Z,99.90
2017-06-28T22:22:34.375Z,99.90
2017-06-28T22:25:02.193Z,99.90
2017-06-28T22:27:30.047Z,99.90
2017-06-28T22:29:57.589Z,99.90
2017-06-28T22:32:25.156Z,99.90
2017-06-28T22:34:52.833Z,99.90
2017-06-28T22:37:20.345Z,99.90
2017-06-28T22:39:47.855Z,99.90
2017-06-28T22:42:15.698Z,99.90
2017-06-28T22:44:43.458Z,99.90
2017-06-28T22:47:10.985Z,99.90
2017-06-28T22:49:38.502Z,99.90
2017-06-28T22:52:06.235Z,99.90
2017-06-28T22:54:33.897Z,99.90
2017-06-28T22:57:01.780Z,99.90
2017-06-28T22:59:29.641Z,99.90
2017-06-28T23:01:57.948Z,99.90
2017-06-28T23:04:26.332Z,99.90
2017-06-28T23:06:53.853Z,99.90
2017-06-28T23:09:21.622Z,99.90
2017-06-28T23:11:49.192Z,99.90
2017-06-28T23:14:16.756Z,99.90
2017-06-28T23:16:45.313Z,99.90
2017-06-28T23:19:13.155Z,99.90
2017-06-28T23:21:41.041Z,99.90
2017-06-28T23:24:08.622Z,99.90
2017-06-28T23:26:36.177Z,99.90
2017-06-28T23:29:04.457Z,99.90
2017-06-28T23:31:33.192Z,99.90
2017-06-28T23:34:00.746Z,99.90
2017-06-28T23:36:28.425Z,99.90
2017-06-28T23:38:55.930Z,99.90
2017-06-28T23:41:23.466Z,99.90
2017-06-28T23:43:50.973Z,99.90
2017-06-28T23:46:18.581Z,99.90
2017-06-28T23:48:46.960Z,99.90
2017-06-28T23:51:15.237Z,99.90
2017-06-28T23:53:43.875Z,99.90
2017-06-28T23:56:11.429Z,99.90
2017-06-28T23:58:39.294Z,99.90
